createdAt,value
2019-02-05T00:00:55.842Z,13.23
2019-02-05T00:03:25.277Z,13.70
2019-02-05T00:05:54.882Z,13.27
2019-02-05T00:08:24.330Z,11.70
2019-02-05T00:10:53.825Z,11.47
2019-02-05T00:13:23.270Z,11.63
2019-02-05T00:15:52.762Z,11.57
2019-02-05T00:18:22.205Z,10.37
2019-02-05T00:20:51.666Z,10.50
2019-02-05T00:23:21.111Z,11.30
2019-02-05T00:25:50.814Z,10.87
2019-02-05T00:28:20.285Z,10.17
2019-02-05T00:30:49.709Z,10.27
2019-02-05T00:33:19.147Z,9.93
2019-02-05T00:35:48.616Z,10.23
2019-02-05T00:38:18.192Z,10.60
2019-02-05T00:40:48.083Z,10.27
2019-02-05T00:43:17.536Z,10.70
2019-02-05T00:45:46.970Z,10.50
2019-02-05T00:48:16.423Z,11.53
2019-02-05T00:50:45.855Z,11.27
2019-02-05T00:53:15.302Z,10.40
2019-02-05T00:55:46.098Z,10.60
2019-02-05T00:58:15.514Z,11.37
2019-02-05T01:00:44.950Z,11.27
2019-02-05T01:03:14.523Z,10.60
2019-02-05T01:05:43.957Z,11.37
2019-02-05T01:08:13.455Z,11.53
2019-02-05T01:10:42.886Z,11.60
2019-02-05T01:13:12.407Z,11.50
2019-02-05T01:15:41.832Z,11.77
2019-02-05T01:18:11.510Z,11.57
2019-02-05T01:20:40.948Z,11.03
2019-02-05T01:23:10.391Z,10.47
2019-02-05T01:25:40.582Z,10.97
2019-02-05T01:28:10.023Z,11.77
2019-02-05T01:30:39.450Z,12.50
2019-02-05T01:33:08.896Z,12.40
2019-02-05T01:35:38.321Z,11.97
2019-02-05T01:38:08.214Z,12.30
2019-02-05T01:40:37.667Z,11.77
2019-02-05T01:43:07.189Z,13.20
2019-02-05T01:45:36.621Z,13.00
2019-02-05T01:48:06.310Z,12.47
2019-02-05T01:50:35.737Z,13.03
2019-02-05T01:53:05.522Z,13.20
2019-02-05T01:55:34.948Z,12.73
2019-02-05T01:58:04.476Z,13.93
2019-02-05T02:00:35.672Z,14.10
2019-02-05T02:03:05.639Z,14.50
2019-02-05T02:05:35.147Z,13.43
2019-02-05T02:08:05.337Z,13.80
2019-02-05T02:10:34.752Z,13.83
2019-02-05T02:13:04.478Z,13.77
2019-02-05T02:15:33.907Z,13.50
2019-02-05T02:18:03.348Z,13.87
2019-02-05T02:20:32.781Z,13.33
2019-02-05T02:23:02.230Z,12.47
2019-02-05T02:25:31.654Z,12.43
2019-02-05T02:28:01.164Z,14.27
2019-02-05T02:30:34.699Z,13.83
2019-02-05T02:33:04.514Z,13.40
2019-02-05T02:35:34.385Z,13.40
2019-02-05T02:38:03.833Z,13.17
2019-02-05T02:40:33.263Z,13.07
2019-02-05T02:43:02.768Z,12.90
2019-02-05T02:45:32.215Z,13.23
2019-02-05T02:48:01.739Z,13.77
2019-02-05T02:50:31.554Z,13.63
2019-02-05T02:53:01.051Z,13.90
2019-02-05T02:55:30.521Z,13.13
2019-02-05T02:58:00.834Z,12.67
2019-02-05T03:00:30.292Z,13.67
2019-02-05T03:02:59.717Z,12.70
2019-02-05T03:05:29.435Z,12.50
2019-02-05T03:07:58.884Z,12.50
2019-02-05T03:10:30.907Z,12.80
2019-02-05T03:13:00.404Z,13.63
2019-02-05T03:15:29.870Z,13.17
2019-02-05T03:17:59.309Z,13.37
2019-02-05T03:20:28.744Z,12.57
2019-02-05T03:22:58.194Z,13.30
2019-02-05T03:25:27.762Z,12.03
2019-02-05T03:27:57.285Z,12.37
2019-02-05T03:30:27.227Z,12.13
2019-02-05T03:32:57.463Z,13.53
2019-02-05T03:35:26.893Z,12.80
2019-02-05T03:37:56.717Z,12.90
2019-02-05T03:40:33.765Z,13.30
2019-02-05T03:43:03.284Z,13.43
2019-02-05T03:45:34.051Z,13.90
2019-02-05T03:48:04.725Z,13.03
2019-02-05T03:50:44.385Z,14.50
2019-02-05T03:53:39.223Z,14.50
2019-02-05T03:56:19.073Z,14.50
2019-02-05T03:59:15.773Z,14.70
2019-02-05T04:02:16.410Z,14.17
2019-02-05T04:05:02.431Z,12.73
2019-02-05T04:07:59.164Z,12.90
2019-02-05T04:10:56.921Z,12.70
2019-02-05T04:14:03.952Z,12.37
2019-02-05T04:16:55.619Z,11.80
2019-02-05T04:19:32.368Z,12.13
2019-02-05T04:22:09.126Z,12.40
2019-02-05T04:24:57.759Z,12.03
2019-02-05T04:27:49.294Z,12.70
2019-02-05T04:30:26.446Z,13.97
2019-02-05T04:33:12.362Z,12.93
2019-02-05T04:36:01.120Z,13.40
2019-02-05T04:38:49.879Z,12.87
2019-02-05T04:41:52.578Z,13.43
2019-02-05T04:44:43.932Z,12.50
2019-02-05T04:47:32.458Z,12.47
2019-02-05T04:50:15.255Z,12.73
2019-02-05T04:53:10.225Z,12.67
2019-02-05T04:56:15.278Z,12.13
2019-02-05T04:59:12.900Z,12.47
2019-02-05T05:01:58.904Z,14.07
2019-02-05T05:04:52.277Z,14.30
2019-02-05T05:07:28.977Z,13.87
2019-02-05T05:09:59.265Z,14.23
2019-02-05T05:12:28.759Z,13.60
2019-02-05T05:14:58.550Z,13.03
2019-02-05T05:17:27.972Z,13.43
2019-02-05T05:19:57.488Z,13.20
2019-02-05T05:22:27.003Z,13.13
2019-02-05T05:24:56.523Z,12.63
2019-02-05T05:27:26.995Z,12.90
2019-02-05T05:29:56.741Z,12.43
2019-02-05T05:32:26.324Z,13.77
2019-02-05T05:34:55.786Z,13.43
2019-02-05T05:37:25.225Z,13.80
2019-02-05T05:39:54.702Z,13.60
2019-02-05T05:42:25.868Z,13.77
2019-02-05T05:44:55.352Z,14.50
2019-02-05T05:47:24.785Z,14.60
2019-02-05T05:49:54.314Z,15.80
2019-02-05T05:52:23.752Z,14.70
2019-02-05T05:54:53.200Z,15.27
2019-02-05T05:57:22.671Z,15.77
2019-02-05T05:59:52.105Z,15.03
2019-02-05T06:02:21.623Z,14.97
2019-02-05T06:04:51.157Z,15.10
2019-02-05T06:07:20.604Z,14.20
2019-02-05T06:09:50.133Z,14.90
2019-02-05T06:12:19.573Z,15.47
2019-02-05T06:14:49.213Z,15.30
2019-02-05T06:17:18.651Z,14.50
2019-02-05T06:19:48.099Z,14.90
2019-02-05T06:22:17.536Z,14.23
2019-02-05T06:24:47.064Z,14.47
2019-02-05T06:27:16.563Z,14.10
2019-02-05T06:29:46.285Z,14.70
2019-02-05T06:32:15.735Z,14.70
2019-02-05T06:34:46.139Z,14.33
2019-02-05T06:37:15.653Z,15.80
2019-02-05T06:39:45.108Z,15.23
2019-02-05T06:42:14.539Z,15.13
2019-02-05T06:44:43.989Z,14.10
2019-02-05T06:47:13.502Z,14.37
2019-02-05T06:49:42.955Z,14.10
2019-02-05T06:52:12.393Z,15.60
2019-02-05T06:54:41.852Z,13.70
2019-02-05T06:57:11.293Z,14.63
2019-02-05T06:59:40.745Z,13.93
2019-02-05T07:02:11.070Z,13.67
2019-02-05T07:04:40.532Z,13.23
2019-02-05T07:07:09.959Z,13.57
2019-02-05T07:09:39.441Z,13.33
2019-02-05T07:12:08.944Z,13.47
2019-02-05T07:14:38.396Z,13.40
2019-02-05T07:17:08.190Z,13.17
2019-02-05T07:19:37.638Z,13.20
2019-02-05T07:22:07.212Z,13.73
2019-02-05T07:24:36.657Z,13.43
2019-02-05T07:27:06.276Z,14.27
2019-02-05T07:29:35.725Z,14.93
2019-02-05T07:32:05.414Z,13.60
2019-02-05T07:34:34.851Z,12.70
2019-02-05T07:37:04.369Z,13.23
2019-02-05T07:39:33.810Z,12.47
2019-02-05T07:42:03.269Z,13.70
2019-02-05T07:44:32.704Z,13.70
2019-02-05T07:47:02.239Z,13.40
2019-02-05T07:49:31.676Z,13.03
2019-02-05T07:52:01.206Z,48.87
2019-02-05T07:54:30.648Z,65.47
2019-02-05T07:57:00.093Z,38.90
2019-02-05T07:59:29.523Z,27.23
2019-02-05T08:01:58.973Z,14.73
2019-02-05T08:04:28.406Z,14.40
2019-02-05T08:06:57.846Z,14.10
2019-02-05T08:09:27.328Z,14.17
2019-02-05T08:11:56.815Z,13.47
2019-02-05T08:14:26.306Z,14.10
2019-02-05T08:16:55.760Z,13.20
2019-02-05T08:19:25.190Z,14.33
2019-02-05T08:21:54.658Z,13.30
2019-02-05T08:24:24.046Z,25.23
2019-02-05T08:26:53.768Z,62.17
2019-02-05T08:29:23.252Z,17.87
2019-02-05T08:31:52.708Z,15.13
2019-02-05T08:34:22.150Z,13.60
2019-02-05T08:36:51.669Z,14.00
2019-02-05T08:39:21.104Z,15.50
2019-02-05T08:41:50.549Z,55.10
2019-02-05T08:44:19.982Z,15.90
2019-02-05T08:46:49.439Z,14.63
2019-02-05T08:49:18.914Z,14.13
2019-02-05T08:51:48.372Z,13.87
2019-02-05T08:54:17.805Z,14.17
2019-02-05T08:56:47.274Z,13.37
2019-02-05T08:59:17.094Z,13.73
2019-02-05T09:01:46.569Z,13.90
2019-02-05T09:04:16.002Z,14.40
2019-02-05T09:06:45.446Z,15.00
2019-02-05T09:09:14.943Z,14.50
2019-02-05T09:11:44.386Z,14.60
2019-02-05T09:14:13.828Z,14.47
2019-02-05T09:16:43.460Z,13.77
2019-02-05T09:19:12.873Z,14.47
2019-02-05T09:21:42.317Z,12.77
2019-02-05T09:24:11.745Z,14.47
2019-02-05T09:26:41.200Z,13.10
2019-02-05T09:29:10.626Z,13.33
2019-02-05T09:31:40.455Z,14.23
2019-02-05T09:34:09.898Z,15.10
2019-02-05T09:36:39.343Z,14.30
2019-02-05T09:39:09.119Z,14.30
2019-02-05T09:41:38.562Z,14.27
2019-02-05T09:44:08.071Z,15.90
2019-02-05T09:46:37.512Z,14.93
2019-02-05T09:49:07.217Z,15.40
2019-02-05T09:51:36.662Z,16.10
2019-02-05T09:54:06.328Z,16.77
2019-02-05T09:56:35.803Z,14.67
2019-02-05T09:59:05.298Z,22.17
2019-02-05T10:01:35.908Z,18.67
2019-02-05T10:04:05.855Z,17.13
2019-02-05T10:06:35.381Z,16.40
2019-02-05T10:09:08.091Z,16.00
2019-02-05T10:11:37.536Z,15.43
2019-02-05T10:14:07.035Z,15.97
2019-02-05T10:16:36.518Z,16.30
2019-02-05T10:19:05.946Z,17.03
2019-02-05T10:21:35.397Z,16.57
2019-02-05T10:24:05.281Z,16.53
2019-02-05T10:26:34.730Z,16.53
2019-02-05T10:29:04.249Z,16.00
2019-02-05T10:31:33.698Z,15.87
2019-02-05T10:34:03.163Z,16.13
2019-02-05T10:36:32.793Z,15.10
2019-02-05T10:39:02.237Z,14.97
2019-02-05T10:41:31.870Z,15.00
2019-02-05T10:44:01.320Z,15.13
2019-02-05T10:46:30.795Z,15.97
2019-02-05T10:49:03.179Z,15.23
2019-02-05T10:51:31.415Z,14.87
2019-02-05T10:54:00.859Z,15.13
2019-02-05T10:56:30.284Z,15.73
2019-02-05T10:58:59.737Z,15.10
2019-02-05T11:01:29.244Z,15.53
2019-02-05T11:03:58.757Z,15.40
2019-02-05T11:06:28.193Z,16.00
2019-02-05T11:08:57.836Z,15.07
2019-02-05T11:11:27.270Z,15.10
2019-02-05T11:13:56.713Z,15.33
2019-02-05T11:16:26.151Z,16.23
2019-02-05T11:18:55.618Z,14.50
2019-02-05T11:21:25.097Z,14.57
2019-02-05T11:23:54.862Z,14.03
2019-02-05T11:26:24.276Z,13.60
2019-02-05T11:28:53.742Z,14.93
2019-02-05T11:31:23.176Z,14.33
2019-02-05T11:33:52.624Z,13.37
2019-02-05T11:36:22.065Z,11.60
2019-02-05T11:38:51.518Z,12.70
2019-02-05T11:41:21.240Z,12.47
2019-02-05T11:43:50.695Z,12.57
2019-02-05T11:46:20.120Z,13.87
2019-02-05T11:48:49.565Z,14.77
2019-02-05T11:51:19.003Z,15.70
2019-02-05T11:53:48.471Z,15.93
2019-02-05T11:56:17.913Z,15.03
2019-02-05T11:58:47.361Z,15.20
2019-02-05T12:01:16.994Z,15.20
2019-02-05T12:03:46.446Z,14.50
2019-02-05T12:06:15.884Z,17.90
2019-02-05T12:08:45.339Z,19.40
2019-02-05T12:11:14.844Z,18.93
2019-02-05T12:13:44.450Z,20.10
2019-02-05T12:16:13.882Z,21.33
2019-02-05T12:18:43.443Z,20.67
2019-02-05T12:21:12.876Z,20.87
2019-02-05T12:23:42.426Z,23.87
2019-02-05T12:26:11.862Z,23.37
2019-02-05T12:28:41.318Z,22.00
2019-02-05T12:31:11.032Z,21.77
2019-02-05T12:33:40.464Z,21.93
2019-02-05T12:36:09.893Z,22.27
2019-02-05T12:38:39.340Z,22.63
2019-02-05T12:41:08.790Z,23.33
2019-02-05T12:43:38.243Z,22.40
2019-02-05T12:46:08.075Z,22.57
2019-02-05T12:48:37.527Z,32.87
2019-02-05T12:51:07.103Z,24.67
2019-02-05T12:53:36.625Z,23.43
2019-02-05T12:56:06.294Z,23.23
2019-02-05T12:58:35.775Z,23.27
2019-02-05T13:01:05.534Z,22.43
2019-02-05T13:03:34.978Z,23.37
2019-02-05T13:06:04.639Z,26.20
2019-02-05T13:08:34.084Z,24.53
2019-02-05T13:11:03.543Z,23.30
2019-02-05T13:13:33.046Z,22.70
2019-02-05T13:16:02.858Z,22.80
2019-02-05T13:18:32.319Z,23.20
2019-02-05T13:21:01.746Z,22.03
2019-02-05T13:23:31.222Z,23.43
2019-02-05T13:26:00.646Z,22.80
2019-02-05T13:28:30.224Z,23.63
2019-02-05T13:31:07.657Z,23.17
2019-02-05T13:33:31.033Z,22.33
2019-02-05T13:36:00.534Z,22.83
2019-02-05T13:38:30.029Z,24.10
2019-02-05T13:40:59.456Z,22.60
2019-02-05T13:43:28.888Z,23.37
2019-02-05T13:45:58.565Z,22.77
2019-02-05T13:48:27.995Z,23.87
2019-02-05T13:50:57.498Z,24.20
2019-02-05T13:53:26.997Z,23.53
2019-02-05T13:55:56.463Z,23.77
2019-02-05T13:58:25.927Z,23.63
2019-02-05T14:00:55.491Z,24.17
2019-02-05T14:03:24.980Z,25.13
2019-02-05T14:05:54.454Z,24.67
2019-02-05T14:08:23.906Z,25.93
2019-02-05T14:10:53.427Z,24.47
2019-02-05T14:13:22.932Z,25.17
2019-02-05T14:15:53.408Z,25.00
2019-02-05T14:18:23.277Z,25.27
2019-02-05T14:20:53.006Z,26.07
2019-02-05T14:23:22.546Z,26.00
2019-02-05T14:25:52.014Z,26.13
2019-02-05T14:28:21.460Z,26.27
2019-02-05T14:30:53.540Z,26.40
2019-02-05T14:33:23.309Z,25.97
2019-02-05T14:35:52.840Z,27.90
2019-02-05T14:38:22.270Z,27.33
2019-02-05T14:40:51.749Z,26.80
2019-02-05T14:43:21.190Z,26.87
2019-02-05T14:45:50.818Z,26.17
2019-02-05T14:48:20.274Z,26.17
2019-02-05T14:50:49.762Z,26.40
2019-02-05T14:53:19.189Z,26.20
2019-02-05T14:55:48.638Z,26.93
2019-02-05T14:58:18.607Z,26.10
2019-02-05T15:00:48.086Z,25.83
2019-02-05T15:03:17.537Z,36.67
2019-02-05T15:05:47.013Z,46.13
2019-02-05T15:08:16.433Z,28.73
2019-02-05T15:10:46.252Z,27.23
2019-02-05T15:13:16.283Z,30.10
2019-02-05T15:15:45.841Z,32.70
2019-02-05T15:18:15.509Z,35.27
2019-02-05T15:20:47.684Z,30.67
2019-02-05T15:23:17.185Z,58.17
2019-02-05T15:25:46.790Z,32.27
2019-02-05T15:28:16.299Z,26.73
2019-02-05T15:30:46.044Z,26.50
2019-02-05T15:33:36.805Z,28.03
2019-02-05T15:36:08.280Z,58.53
2019-02-05T15:38:37.702Z,35.20
2019-02-05T15:41:07.169Z,27.33
2019-02-05T15:43:37.874Z,28.60
2019-02-05T15:46:07.337Z,27.13
2019-02-05T15:48:36.769Z,56.83
2019-02-05T15:51:07.162Z,47.47
2019-02-05T15:53:36.606Z,31.77
2019-02-05T15:56:06.572Z,27.17
2019-02-05T15:58:36.019Z,27.23
2019-02-05T16:01:06.482Z,26.20
2019-02-05T16:03:35.916Z,45.90
2019-02-05T16:06:05.822Z,28.13
2019-02-05T16:08:35.255Z,28.07
2019-02-05T16:11:05.214Z,28.50
2019-02-05T16:13:34.712Z,28.10
2019-02-05T16:16:04.545Z,28.37
2019-02-05T16:18:33.989Z,29.13
2019-02-05T16:21:03.954Z,26.17
2019-02-05T16:23:33.446Z,28.93
2019-02-05T16:26:02.917Z,27.03
2019-02-05T16:28:32.356Z,29.17
2019-02-05T16:31:01.883Z,28.73
2019-02-05T16:33:31.317Z,27.47
2019-02-05T16:36:01.140Z,27.37
2019-02-05T16:38:30.568Z,28.37
2019-02-05T16:41:00.035Z,29.67
2019-02-05T16:43:29.462Z,29.47
2019-02-05T16:45:58.925Z,28.63
2019-02-05T16:48:28.442Z,29.17
2019-02-05T16:50:58.218Z,29.47
2019-02-05T16:53:27.642Z,27.83
2019-02-05T16:55:57.187Z,29.40
2019-02-05T16:58:26.626Z,28.73
2019-02-05T17:00:56.109Z,28.63
2019-02-05T17:03:25.542Z,30.17
2019-02-05T17:05:55.289Z,33.23
2019-02-05T17:08:24.862Z,30.73
2019-02-05T17:10:54.352Z,29.80
2019-02-05T17:13:23.779Z,28.07
2019-02-05T17:15:53.250Z,29.67
2019-02-05T17:18:24.014Z,28.37
2019-02-05T17:20:53.651Z,29.97
2019-02-05T17:23:23.085Z,29.33
2019-02-05T17:25:52.568Z,28.10
2019-02-05T17:28:22.006Z,29.00
2019-02-05T17:30:52.427Z,28.17
2019-02-05T17:33:22.076Z,28.77
2019-02-05T17:35:51.626Z,30.50
2019-02-05T17:38:21.053Z,28.77
2019-02-05T17:40:50.553Z,30.50
2019-02-05T17:43:19.967Z,29.47
2019-02-05T17:45:49.405Z,29.87
2019-02-05T17:48:19.017Z,29.93
2019-02-05T17:50:48.449Z,29.07
2019-02-05T17:53:18.093Z,30.27
2019-02-05T17:55:47.524Z,29.47
2019-02-05T17:58:17.035Z,29.27
2019-02-05T18:00:53.501Z,28.17
2019-02-05T18:03:23.289Z,27.13
2019-02-05T18:05:52.796Z,28.87
2019-02-05T18:08:22.263Z,29.03
2019-02-05T18:10:51.698Z,28.23
2019-02-05T18:13:21.192Z,27.53
2019-02-05T18:15:50.630Z,27.80
2019-02-05T18:18:20.296Z,27.50
2019-02-05T18:20:49.730Z,27.43
2019-02-05T18:23:19.211Z,37.30
2019-02-05T18:25:48.677Z,33.87
2019-02-05T18:28:18.159Z,32.87
2019-02-05T18:30:47.661Z,29.63
2019-02-05T18:33:17.516Z,28.90
2019-02-05T18:35:47.171Z,27.47
2019-02-05T18:38:17.727Z,26.73
2019-02-05T18:40:47.159Z,29.13
2019-02-05T18:43:16.708Z,28.73
2019-02-05T18:45:46.142Z,27.77
2019-02-05T18:48:15.616Z,26.43
2019-02-05T18:50:45.754Z,27.37
2019-02-05T18:53:15.246Z,26.63
2019-02-05T18:55:46.396Z,27.53
2019-02-05T18:58:15.912Z,27.53
2019-02-05T19:00:46.634Z,27.30
2019-02-05T19:03:16.523Z,25.93
2019-02-05T19:05:46.143Z,25.63
2019-02-05T19:08:16.563Z,25.10
2019-02-05T19:10:46.493Z,22.77
2019-02-05T19:13:15.973Z,22.97
2019-02-05T19:15:45.880Z,22.60
2019-02-05T19:18:15.370Z,23.13
2019-02-05T19:20:44.874Z,23.87
2019-02-05T19:23:14.432Z,23.80
2019-02-05T19:25:54.252Z,23.07
2019-02-05T19:28:25.743Z,23.47
2019-02-05T19:31:02.445Z,23.13
2019-02-05T19:33:32.884Z,23.97
2019-02-05T19:36:02.305Z,23.10
2019-02-05T19:38:31.860Z,22.60
2019-02-05T19:41:01.687Z,23.10
2019-02-05T19:43:31.176Z,22.33
2019-02-05T19:46:02.842Z,21.53
2019-02-05T19:48:34.125Z,22.87
2019-02-05T19:51:03.896Z,22.97
2019-02-05T19:53:33.386Z,23.13
2019-02-05T19:56:03.200Z,22.53
2019-02-05T19:58:33.126Z,22.13
2019-02-05T20:01:03.666Z,23.20
2019-02-05T20:03:38.889Z,22.87
2019-02-05T20:06:04.931Z,23.30
2019-02-05T20:08:34.468Z,23.20
2019-02-05T20:11:03.913Z,22.00
2019-02-05T20:13:40.391Z,21.70
2019-02-05T20:16:04.711Z,23.40
2019-02-05T20:18:34.380Z,23.83
2019-02-05T20:21:04.039Z,23.77
2019-02-05T20:23:33.519Z,22.83
2019-02-05T20:26:02.949Z,22.37
2019-02-05T20:28:32.429Z,22.90
2019-02-05T20:31:01.853Z,22.40
2019-02-05T20:33:31.410Z,24.80
2019-02-05T20:36:00.841Z,22.43
2019-02-05T20:38:30.343Z,22.90
2019-02-05T20:40:59.776Z,21.57
2019-02-05T20:43:29.362Z,21.27
2019-02-05T20:45:59.123Z,21.13
2019-02-05T20:48:29.729Z,21.17
2019-02-05T20:51:01.105Z,21.13
2019-02-05T20:53:30.845Z,23.07
2019-02-05T20:56:00.385Z,21.60
2019-02-05T20:58:29.973Z,21.47
2019-02-05T21:00:59.508Z,21.80
2019-02-05T21:03:29.107Z,22.77
2019-02-05T21:05:58.648Z,22.33
2019-02-05T21:08:28.181Z,21.47
2019-02-05T21:10:57.709Z,23.07
2019-02-05T21:13:27.215Z,21.70
2019-02-05T21:15:56.774Z,21.27
2019-02-05T21:18:26.434Z,21.67
2019-02-05T21:20:56.031Z,22.77
2019-02-05T21:23:25.636Z,23.97
2019-02-05T21:25:55.218Z,22.97
2019-02-05T21:28:24.719Z,23.80
2019-02-05T21:30:54.373Z,23.47
2019-02-05T21:33:24.129Z,23.67
2019-02-05T21:35:53.603Z,22.77
2019-02-05T21:38:23.048Z,22.03
2019-02-05T21:40:52.648Z,23.67
2019-02-05T21:43:22.101Z,23.10
2019-02-05T21:45:51.592Z,22.83
2019-02-05T21:48:21.472Z,22.17
2019-02-05T21:50:50.942Z,22.73
2019-02-05T21:53:20.393Z,22.50
2019-02-05T21:55:49.853Z,23.50
2019-02-05T21:58:19.307Z,24.23
2019-02-05T22:00:48.794Z,23.13
2019-02-05T22:03:18.235Z,23.17
2019-02-05T22:05:47.983Z,22.77
2019-02-05T22:08:17.631Z,24.30
2019-02-05T22:10:47.195Z,23.73
2019-02-05T22:13:16.724Z,23.63
2019-02-05T22:15:46.407Z,23.83
2019-02-05T22:18:15.954Z,24.47
2019-02-05T22:20:45.503Z,23.93
2019-02-05T22:23:15.435Z,24.73
2019-02-05T22:25:44.972Z,23.63
2019-02-05T22:28:14.461Z,25.37
2019-02-05T22:30:43.976Z,23.77
2019-02-05T22:33:13.488Z,25.17
2019-02-05T22:35:43.098Z,24.60
2019-02-05T22:38:12.656Z,24.63
2019-02-05T22:40:42.199Z,25.87
2019-02-05T22:43:11.954Z,23.77
2019-02-05T22:45:41.547Z,24.93
2019-02-05T22:48:11.111Z,24.43
2019-02-05T22:50:40.634Z,24.00
2019-02-05T22:53:12.049Z,23.27
2019-02-05T22:55:41.629Z,23.63
2019-02-05T22:58:11.357Z,22.93
2019-02-05T23:00:53.262Z,21.93
2019-02-05T23:03:27.468Z,19.47
2019-02-05T23:06:34.980Z,22.03
2019-02-05T23:09:17.891Z,20.77
2019-02-05T23:11:54.922Z,20.67
2019-02-05T23:14:24.440Z,21.20
2019-02-05T23:16:53.995Z,19.40
2019-02-05T23:19:23.802Z,20.57
2019-02-05T23:21:53.783Z,19.53
2019-02-05T23:24:23.267Z,18.87
2019-02-05T23:26:52.969Z,18.37
2019-02-05T23:29:22.592Z,19.77
2019-02-05T23:31:52.147Z,20.37
2019-02-05T23:34:21.927Z,18.33
2019-02-05T23:36:51.656Z,20.23
2019-02-05T23:39:21.228Z,20.10
2019-02-05T23:41:50.845Z,20.17
2019-02-05T23:44:20.376Z,20.63
2019-02-05T23:46:50.255Z,20.10
2019-02-05T23:49:19.869Z,21.13
2019-02-05T23:51:49.388Z,22.30
2019-02-05T23:54:18.880Z,21.27
2019-02-05T23:56:48.427Z,21.50
2019-02-05T23:59:17.914Z,20.87
